Time;durP1;ratioP1;P1;durP2;ratioP2;P2;SDS_P1;SDS_P2;PMS_P1;PMS_P2;Temp;Humidity;BMP_temperature;BMP_pressure;BME280_temperature;BME280_humidity;BME280_pressure;Samples;Min_cycle;Max_cycle;Signal;HPM_P1;HPM_P2
2022/07/08 00:00:25;;;;;;;;;;;23.80;92.00;;;;;;5097074;28;19908;-61
2022/07/08 00:02:51;;;;;;;;;;;23.80;92.00;;;;;;5096898;28;19958;-61
2022/07/08 00:05:16;;;;;;;;;;;23.80;92.00;;;;;;5097080;28;20006;-61
2022/07/08 00:07:42;;;;;;;;;;;23.80;91.90;;;;;;5078895;28;20025;-61
2022/07/08 00:10:08;;;;;;;;;;;23.80;91.90;;;;;;5097003;28;19915;-61
2022/07/08 00:12:33;;;;;;;;;;;23.80;91.90;;;;;;5097158;28;19966;-60
2022/07/08 00:14:59;;;;;;;;;;;23.80;91.90;;;;;;5096894;28;20406;-61
2022/07/08 00:17:24;;;;;;;;;;;23.80;91.90;;;;;;5096749;28;19908;-61
2022/07/08 00:19:50;;;;;;;;;;;23.80;91.90;;;;;;5096809;28;19951;-61
2022/07/08 00:22:15;;;;;;;;;;;23.80;91.90;;;;;;5096676;28;19916;-61
2022/07/08 00:24:41;;;;;;;;;;;23.80;92.00;;;;;;5096700;28;19916;-61
2022/07/08 00:27:06;;;;;;;;;;;23.80;92.00;;;;;;5096420;28;20422;-61
2022/07/08 00:29:31;;;;;;;;;;;23.80;92.00;;;;;;5096642;28;19915;-61
2022/07/08 00:31:57;;;;;;;;;;;23.70;91.90;;;;;;5096518;28;19908;-61
2022/07/08 00:34:22;;;;;;;;;;;23.70;91.90;;;;;;5095261;28;19908;-62
2022/07/08 00:36:48;;;;;;;;;;;23.70;91.90;;;;;;5096786;28;19908;-61
2022/07/08 00:39:13;;;;;;;;;;;23.80;92.20;;;;;;5096726;28;19908;-61
2022/07/08 00:41:39;;;;;;;;;;;23.80;91.90;;;;;;5096242;28;19912;-61
2022/07/08 00:44:05;;;;;;;;;;;23.80;91.90;;;;;;5096335;28;19912;-61
2022/07/08 00:46:30;;;;;;;;;;;23.80;92.00;;;;;;5096013;28;19953;-61
2022/07/08 00:48:56;;;;;;;;;;;23.80;92.00;;;;;;5096272;28;19919;-61
2022/07/08 00:51:22;;;;;;;;;;;23.70;91.90;;;;;;5095876;28;20353;-61
2022/07/08 00:53:50;;;;;;;;;;;23.70;91.90;;;;;;5096036;28;19908;-61
2022/07/08 00:56:16;;;;;;;;;;;23.70;91.90;;;;;;5095706;28;20346;-61
2022/07/08 00:58:42;;;;;;;;;;;23.70;91.90;;;;;;5095800;28;19951;-61
2022/07/08 01:01:08;;;;;;;;;;;23.70;91.90;;;;;;5095841;28;19996;-61
2022/07/08 01:03:33;;;;;;;;;;;23.70;91.90;;;;;;5095957;28;19916;-61
2022/07/08 01:05:59;;;;;;;;;;;23.70;91.90;;;;;;5095876;28;20027;-61
2022/07/08 01:08:24;;;;;;;;;;;23.70;92.00;;;;;;5095790;28;20457;-61
2022/07/08 01:10:50;;;;;;;;;;;23.70;91.90;;;;;;5095750;28;19915;-61
2022/07/08 01:13:16;;;;;;;;;;;23.70;91.90;;;;;;5095434;28;19915;-61
2022/07/08 01:15:42;;;;;;;;;;;23.70;91.90;;;;;;5095634;28;20248;-61
2022/07/08 01:18:08;;;;;;;;;;;23.70;91.90;;;;;;5077454;28;20422;-61
2022/07/08 01:20:33;;;;;;;;;;;23.70;92.00;;;;;;5095291;28;19951;-61
2022/07/08 01:22:59;;;;;;;;;;;23.70;92.00;;;;;;5095667;28;20267;-61
2022/07/08 01:25:25;;;;;;;;;;;23.70;91.90;;;;;;5095476;28;19912;-61
2022/07/08 01:27:50;;;;;;;;;;;23.70;92.20;;;;;;5095614;28;19912;-61
2022/07/08 01:30:16;;;;;;;;;;;23.70;92.00;;;;;;5077536;28;20276;-61
2022/07/08 01:32:41;;;;;;;;;;;23.70;92.00;;;;;;5095416;28;19918;-62
2022/07/08 01:35:07;;;;;;;;;;;23.70;91.90;;;;;;5095347;28;20010;-61
2022/07/08 01:37:33;;;;;;;;;;;23.70;91.90;;;;;;5095022;28;20003;-61
2022/07/08 01:39:58;;;;;;;;;;;23.70;91.90;;;;;;5095272;28;20331;-61
2022/07/08 01:42:24;;;;;;;;;;;23.70;92.00;;;;;;5111012;28;20015;-61
2022/07/08 01:44:49;;;;;;;;;;;23.70;92.00;;;;;;5094559;28;19919;-61
2022/07/08 01:47:15;;;;;;;;;;;23.70;92.00;;;;;;5094774;28;19912;-61
2022/07/08 01:49:40;;;;;;;;;;;23.70;92.00;;;;;;5095369;28;19908;-61
2022/07/08 01:52:07;;;;;;;;;;;23.70;92.00;;;;;;5095041;28;20054;-61
2022/07/08 01:54:32;;;;;;;;;;;23.70;92.20;;;;;;5095012;28;20422;-61
2022/07/08 01:57:13;;;;;;;;;;;23.70;92.00;;;;;;5094678;28;20016;-61
2022/07/08 01:59:39;;;;;;;;;;;23.70;92.00;;;;;;5094700;28;19927;-61
2022/07/08 02:02:05;;;;;;;;;;;23.70;92.00;;;;;;5076638;28;19912;-61
2022/07/08 02:04:30;;;;;;;;;;;23.70;92.00;;;;;;5076660;28;20271;-61
2022/07/08 02:06:55;;;;;;;;;;;23.70;91.90;;;;;;5094841;28;19999;-61
2022/07/08 02:09:21;;;;;;;;;;;23.70;91.90;;;;;;5094459;28;19999;-61
2022/07/08 02:14:32;;;;;;;;;;;23.60;91.90;;;;;;5094450;28;19915;-61
2022/07/08 02:16:57;;;;;;;;;;;23.60;92.00;;;;;;5094617;28;19931;-61
2022/07/08 02:19:23;;;;;;;;;;;23.60;91.90;;;;;;5094322;28;20367;-61
2022/07/08 02:21:48;;;;;;;;;;;23.60;91.90;;;;;;5094471;28;19912;-61
2022/07/08 02:24:14;;;;;;;;;;;23.60;91.90;;;;;;5094495;28;19912;-61
2022/07/08 02:26:39;;;;;;;;;;;23.60;91.90;;;;;;5094807;28;19914;-61
2022/07/08 02:29:05;;;;;;;;;;;23.60;91.90;;;;;;5094421;28;19909;-61
2022/07/08 02:31:30;;;;;;;;;;;23.60;91.90;;;;;;5094209;28;19958;-61
2022/07/08 02:33:56;;;;;;;;;;;23.60;92.00;;;;;;5094144;28;19915;-61
2022/07/08 02:36:21;;;;;;;;;;;23.60;91.90;;;;;;5094177;28;20330;-61
2022/07/08 02:38:47;;;;;;;;;;;23.60;91.90;;;;;;5094086;28;19995;-61
2022/07/08 02:41:12;;;;;;;;;;;23.60;91.90;;;;;;5094005;28;19912;-61
2022/07/08 02:43:38;;;;;;;;;;;23.60;91.90;;;;;;5094633;28;20011;-61
2022/07/08 02:46:03;;;;;;;;;;;23.60;91.90;;;;;;5093949;28;19915;-61
2022/07/08 02:48:29;;;;;;;;;;;23.60;91.90;;;;;;5093994;28;19908;-61
2022/07/08 02:50:54;;;;;;;;;;;23.60;91.90;;;;;;5094221;28;19908;-61
2022/07/08 02:53:20;;;;;;;;;;;23.60;91.90;;;;;;5093949;28;19908;-61
2022/07/08 02:55:45;;;;;;;;;;;23.60;91.80;;;;;;5076149;28;19915;-61
2022/07/08 02:58:11;;;;;;;;;;;23.60;91.90;;;;;;5097514;28;19924;-61
2022/07/08 03:00:36;;;;;;;;;;;23.60;91.90;;;;;;5098266;28;19915;-62
2022/07/08 03:03:02;;;;;;;;;;;23.60;91.90;;;;;;5098050;28;19912;-61
2022/07/08 03:05:27;;;;;;;;;;;23.60;91.90;;;;;;5098191;28;19966;-61
2022/07/08 03:07:53;;;;;;;;;;;23.60;91.90;;;;;;5080009;28;19911;-61
2022/07/08 03:10:18;;;;;;;;;;;23.60;91.90;;;;;;5098008;28;20007;-61
2022/07/08 03:12:44;;;;;;;;;;;23.60;91.90;;;;;;5079851;28;19908;-61
2022/07/08 03:15:09;;;;;;;;;;;23.60;91.90;;;;;;5097675;28;19951;-61
2022/07/08 03:17:35;;;;;;;;;;;23.60;91.90;;;;;;5097574;28;19908;-61
2022/07/08 03:20:00;;;;;;;;;;;23.50;91.90;;;;;;5097854;28;20006;-61
2022/07/08 03:22:26;;;;;;;;;;;23.60;91.90;;;;;;5097515;28;19972;-61
2022/07/08 03:24:51;;;;;;;;;;;23.50;91.90;;;;;;5097650;28;19943;-61
2022/07/08 03:27:16;;;;;;;;;;;23.60;91.90;;;;;;5097762;28;20263;-61
2022/07/08 03:29:42;;;;;;;;;;;23.50;91.90;;;;;;5097585;28;20008;-61
2022/07/08 03:32:07;;;;;;;;;;;23.50;92.10;;;;;;5079315;28;19908;-61
2022/07/08 03:34:33;;;;;;;;;;;23.50;91.90;;;;;;5097403;28;19920;-59
2022/07/08 03:36:59;;;;;;;;;;;23.50;91.90;;;;;;5097491;28;19947;-61
2022/07/08 03:39:24;;;;;;;;;;;23.50;91.90;;;;;;5097234;28;20346;-61
2022/07/08 03:41:50;;;;;;;;;;;23.50;91.90;;;;;;5079174;28;19912;-60
2022/07/08 03:44:15;;;;;;;;;;;23.50;91.90;;;;;;5097449;28;19986;-61
2022/07/08 03:46:41;;;;;;;;;;;23.50;91.90;;;;;;5097053;28;19966;-60
2022/07/08 03:49:07;;;;;;;;;;;23.50;91.80;;;;;;5079115;28;19912;-61
2022/07/08 03:51:33;;;;;;;;;;;23.50;91.90;;;;;;5097294;28;19970;-60
2022/07/08 03:53:59;;;;;;;;;;;23.50;91.80;;;;;;5097248;28;20368;-60
2022/07/08 03:56:24;;;;;;;;;;;23.50;91.80;;;;;;5097156;28;19912;-60
2022/07/08 03:58:50;;;;;;;;;;;23.50;91.80;;;;;;5097248;28;19920;-60
2022/07/08 04:01:15;;;;;;;;;;;23.50;91.90;;;;;;5097271;28;19912;-61
2022/07/08 04:03:41;;;;;;;;;;;23.50;91.90;;;;;;5078974;28;19916;-60
2022/07/08 04:06:06;;;;;;;;;;;23.50;91.90;;;;;;5096956;28;20368;-60
2022/07/08 04:08:32;;;;;;;;;;;23.50;91.90;;;;;;5096780;28;19909;-60
2022/07/08 04:10:57;;;;;;;;;;;23.50;91.90;;;;;;5096466;28;19908;-60
2022/07/08 04:13:24;;;;;;;;;;;23.50;91.90;;;;;;5096634;28;19952;-61
2022/07/08 04:15:50;;;;;;;;;;;23.50;91.90;;;;;;5096689;28;19998;-61
2022/07/08 04:18:15;;;;;;;;;;;23.50;91.90;;;;;;5096680;28;19908;-61
2022/07/08 04:20:41;;;;;;;;;;;23.40;91.80;;;;;;5096645;28;19919;-61
2022/07/08 04:23:06;;;;;;;;;;;23.50;91.90;;;;;;5096839;28;20291;-60
2022/07/08 04:25:32;;;;;;;;;;;23.50;91.90;;;;;;5096449;28;19908;-61
2022/07/08 04:27:57;;;;;;;;;;;23.50;91.90;;;;;;5096479;28;19954;-61
2022/07/08 04:30:22;;;;;;;;;;;23.50;91.90;;;;;;5096286;28;20017;-60
2022/07/08 04:32:48;;;;;;;;;;;23.40;91.90;;;;;;5095988;28;20275;-60
2022/07/08 04:35:13;;;;;;;;;;;23.40;91.90;;;;;;5096010;28;19947;-61
2022/07/08 04:37:39;;;;;;;;;;;23.40;91.90;;;;;;5096077;28;20355;-61
2022/07/08 04:40:05;;;;;;;;;;;23.40;91.90;;;;;;5096211;28;19908;-61
2022/07/08 04:42:30;;;;;;;;;;;23.40;91.90;;;;;;5095855;28;19912;-61
2022/07/08 04:44:56;;;;;;;;;;;23.40;91.90;;;;;;5096000;28;20369;-61
2022/07/08 04:47:21;;;;;;;;;;;23.40;91.90;;;;;;5095984;28;19918;-61
2022/07/08 04:49:46;;;;;;;;;;;23.40;91.90;;;;;;5095883;28;19947;-60
2022/07/08 04:52:12;;;;;;;;;;;23.40;91.90;;;;;;5095482;28;20263;-60
2022/07/08 04:54:37;;;;;;;;;;;23.40;91.90;;;;;;5095875;28;19966;-60
2022/07/08 04:57:04;;;;;;;;;;;23.40;91.80;;;;;;5096073;28;20015;-59
2022/07/08 04:59:29;;;;;;;;;;;23.40;91.90;;;;;;5095233;28;20000;-60
2022/07/08 05:01:55;;;;;;;;;;;23.40;91.80;;;;;;5095394;28;19952;-60
2022/07/08 05:04:20;;;;;;;;;;;23.40;91.90;;;;;;5095416;28;19919;-60
2022/07/08 05:06:47;;;;;;;;;;;23.40;91.90;;;;;;5077579;28;20396;-60
2022/07/08 05:09:13;;;;;;;;;;;23.40;91.80;;;;;;5095152;28;19908;-60
2022/07/08 05:11:38;;;;;;;;;;;23.40;91.80;;;;;;5095003;28;19908;-61
2022/07/08 05:14:05;;;;;;;;;;;23.40;91.80;;;;;;5094950;28;19909;-61
2022/07/08 05:16:30;;;;;;;;;;;23.40;92.00;;;;;;5094990;28;19909;-60
2022/07/08 05:18:56;;;;;;;;;;;23.40;91.80;;;;;;5094980;28;19915;-60
2022/07/08 05:21:21;;;;;;;;;;;23.40;91.80;;;;;;5094573;28;19920;-61
2022/07/08 05:23:47;;;;;;;;;;;23.40;91.80;;;;;;5095187;28;19913;-61
2022/07/08 05:26:13;;;;;;;;;;;23.40;91.80;;;;;;5095096;28;19908;-61
2022/07/08 05:28:38;;;;;;;;;;;23.40;91.80;;;;;;5095132;28;19909;-61
2022/07/08 05:31:04;;;;;;;;;;;23.40;91.80;;;;;;5095189;28;20278;-60
2022/07/08 05:33:29;;;;;;;;;;;23.40;91.80;;;;;;5095078;28;19908;-61
2022/07/08 05:35:54;;;;;;;;;;;23.40;91.80;;;;;;5095034;28;20023;-61
2022/07/08 05:38:20;;;;;;;;;;;23.40;91.80;;;;;;5094495;28;19908;-60
2022/07/08 05:40:45;;;;;;;;;;;23.40;91.80;;;;;;5094527;28;20350;-61
2022/07/08 05:43:11;;;;;;;;;;;23.40;91.80;;;;;;5094730;28;20050;-61
2022/07/08 05:45:36;;;;;;;;;;;23.40;91.80;;;;;;5094150;28;19908;-60
2022/07/08 05:48:02;;;;;;;;;;;23.40;91.80;;;;;;5076220;28;19908;-60
2022/07/08 05:50:27;;;;;;;;;;;23.40;91.70;;;;;;5094518;28;19999;-61
2022/07/08 05:52:53;;;;;;;;;;;23.40;91.80;;;;;;5094344;28;19915;-60
2022/07/08 05:55:18;;;;;;;;;;;23.40;91.80;;;;;;5094329;28;19908;-61
2022/07/08 05:57:44;;;;;;;;;;;23.40;91.70;;;;;;5094224;28;20007;-61
2022/07/08 06:00:10;;;;;;;;;;;23.40;91.80;;;;;;5094352;28;20374;-61
2022/07/08 06:02:37;;;;;;;;;;;23.40;91.80;;;;;;5076101;28;19919;-61
2022/07/08 06:05:02;;;;;;;;;;;23.40;91.80;;;;;;5076269;28;20024;-60
2022/07/08 06:07:28;;;;;;;;;;;23.50;91.80;;;;;;5094221;28;19936;-60
2022/07/08 06:09:53;;;;;;;;;;;23.50;91.80;;;;;;5094433;28;19908;-59
2022/07/08 06:12:19;;;;;;;;;;;23.40;91.70;;;;;;5093773;28;19930;-60
2022/07/08 06:14:44;;;;;;;;;;;23.50;91.70;;;;;;5094431;28;19908;-60
2022/07/08 06:17:10;;;;;;;;;;;23.50;91.70;;;;;;5094020;28;19908;-60
2022/07/08 06:19:35;;;;;;;;;;;23.40;91.70;;;;;;5093677;28;19912;-60
2022/07/08 06:22:01;;;;;;;;;;;23.40;91.70;;;;;;5093836;28;19916;-60
2022/07/08 06:24:26;;;;;;;;;;;23.40;91.80;;;;;;5093734;28;19916;-60
2022/07/08 06:26:52;;;;;;;;;;;23.40;91.70;;;;;;5093990;28;19912;-60
2022/07/08 06:29:18;;;;;;;;;;;23.40;91.70;;;;;;5093880;28;19912;-60
2022/07/08 06:31:44;;;;;;;;;;;23.40;91.80;;;;;;5074693;28;19915;-61
2022/07/08 06:34:09;;;;;;;;;;;23.40;91.70;;;;;;5093840;28;19908;-61
2022/07/08 06:36:35;;;;;;;;;;;23.40;91.80;;;;;;5093572;28;20022;-60
2022/07/08 06:39:00;;;;;;;;;;;23.40;91.70;;;;;;5093752;28;20412;-60
2022/07/08 06:41:26;;;;;;;;;;;23.40;91.60;;;;;;5093852;28;19912;-60
2022/07/08 06:43:51;;;;;;;;;;;23.40;91.70;;;;;;5093846;28;20003;-61
2022/07/08 06:46:17;;;;;;;;;;;23.40;91.70;;;;;;5093557;28;19909;-61
2022/07/08 06:48:42;;;;;;;;;;;23.40;91.70;;;;;;5093259;28;19915;-60
2022/07/08 06:51:08;;;;;;;;;;;23.40;91.70;;;;;;5093862;28;19908;-59
2022/07/08 06:56:17;;;;;;;;;;;23.40;91.70;;;;;;5093533;28;20386;-61
2022/07/08 06:58:43;;;;;;;;;;;23.40;91.70;;;;;;5093661;28;19921;-60
2022/07/08 07:01:11;;;;;;;;;;;23.40;91.70;;;;;;5075395;28;19913;-61
2022/07/08 07:03:37;;;;;;;;;;;23.40;91.70;;;;;;5093616;28;20011;-61
2022/07/08 07:06:03;;;;;;;;;;;23.40;91.70;;;;;;5093792;28;19908;-60
2022/07/08 07:08:28;;;;;;;;;;;23.40;91.60;;;;;;5093343;28;19915;-62
2022/07/08 07:10:54;;;;;;;;;;;23.40;91.70;;;;;;5093571;28;19909;-60
2022/07/08 07:13:20;;;;;;;;;;;23.40;91.70;;;;;;5075483;28;20183;-60
2022/07/08 07:15:46;;;;;;;;;;;23.40;91.70;;;;;;5093393;28;19909;-61
2022/07/08 07:18:11;;;;;;;;;;;23.40;91.70;;;;;;5093945;28;19912;-60
2022/07/08 07:20:37;;;;;;;;;;;23.40;91.70;;;;;;5075181;28;20393;-60
2022/07/08 07:23:02;;;;;;;;;;;23.40;91.70;;;;;;5093871;28;19918;-61
2022/07/08 07:25:28;;;;;;;;;;;23.40;91.70;;;;;;5093536;28;19916;-61
2022/07/08 07:27:53;;;;;;;;;;;23.40;91.60;;;;;;5093338;28;19915;-61
2022/07/08 07:30:20;;;;;;;;;;;23.40;91.70;;;;;;5093374;28;19908;-61
2022/07/08 07:32:45;;;;;;;;;;;23.40;91.60;;;;;;5075294;28;19913;-61
2022/07/08 07:35:10;;;;;;;;;;;23.40;91.60;;;;;;5093299;28;20117;-61
2022/07/08 07:37:37;;;;;;;;;;;23.40;91.60;;;;;;5093384;28;19915;-60
2022/07/08 07:40:06;;;;;;;;;;;23.40;91.60;;;;;;5075472;28;19909;-61
2022/07/08 07:42:32;;;;;;;;;;;23.40;91.60;;;;;;5093612;28;19923;-61
2022/07/08 07:44:57;;;;;;;;;;;23.40;91.60;;;;;;5096860;28;20316;-61
2022/07/08 07:47:23;;;;;;;;;;;23.40;91.60;;;;;;5097065;28;20274;-60
2022/07/08 07:49:49;;;;;;;;;;;23.40;91.60;;;;;;5097308;28;19952;-61
2022/07/08 07:52:15;;;;;;;;;;;23.40;91.60;;;;;;5096956;28;19908;-61
2022/07/08 07:54:40;;;;;;;;;;;23.40;91.60;;;;;;5096820;28;20007;-61
2022/07/08 07:57:06;;;;;;;;;;;23.40;91.60;;;;;;5096669;28;19931;-60
2022/07/08 07:59:31;;;;;;;;;;;23.40;91.60;;;;;;5096840;28;19927;-61
2022/07/08 08:01:57;;;;;;;;;;;23.40;91.60;;;;;;5096431;28;19916;-61
2022/07/08 08:04:22;;;;;;;;;;;23.40;91.60;;;;;;5096787;28;19916;-61
2022/07/08 08:06:48;;;;;;;;;;;23.40;91.60;;;;;;5096442;28;20252;-61
2022/07/08 08:09:13;;;;;;;;;;;23.40;91.60;;;;;;5096257;28;19908;-61
2022/07/08 08:11:39;;;;;;;;;;;23.40;91.60;;;;;;5096765;28;19912;-61
2022/07/08 08:14:04;;;;;;;;;;;23.40;91.60;;;;;;5096090;28;19912;-60
2022/07/08 08:16:30;;;;;;;;;;;23.30;91.60;;;;;;5096128;28;19908;-60
2022/07/08 08:18:55;;;;;;;;;;;23.40;91.60;;;;;;5096068;28;20328;-61
2022/07/08 08:21:21;;;;;;;;;;;23.40;91.60;;;;;;5078032;28;20412;-60
2022/07/08 08:23:46;;;;;;;;;;;23.40;91.60;;;;;;5096333;28;19912;-61
2022/07/08 08:26:12;;;;;;;;;;;23.40;91.60;;;;;;5077976;28;20305;-61
2022/07/08 08:28:37;;;;;;;;;;;23.40;91.60;;;;;;5096523;28;19908;-61
2022/07/08 08:31:03;;;;;;;;;;;23.40;91.60;;;;;;5078159;28;20016;-61
2022/07/08 08:33:28;;;;;;;;;;;23.40;91.60;;;;;;5096063;28;19909;-61
2022/07/08 08:35:54;;;;;;;;;;;23.40;91.60;;;;;;5095843;28;19908;-61
2022/07/08 08:38:19;;;;;;;;;;;23.30;91.60;;;;;;5096163;28;19908;-61
2022/07/08 08:40:45;;;;;;;;;;;23.40;91.60;;;;;;5077792;28;19916;-61
2022/07/08 08:43:11;;;;;;;;;;;23.40;91.60;;;;;;5077869;28;19922;-62
2022/07/08 08:45:36;;;;;;;;;;;23.30;91.60;;;;;;5077808;28;19908;-61
2022/07/08 08:48:05;;;;;;;;;;;23.40;91.60;;;;;;5096201;28;20331;-61
2022/07/08 08:53:16;;;;;;;;;;;23.40;91.60;;;;;;5095513;28;19915;-61
2022/07/08 08:55:43;;;;;;;;;;;23.30;91.60;;;;;;5094802;28;19916;-61
2022/07/08 08:58:09;;;;;;;;;;;23.30;91.60;;;;;;5096120;28;19927;-61
2022/07/08 09:00:35;;;;;;;;;;;23.40;91.60;;;;;;5095261;28;19909;-61
2022/07/08 09:03:01;;;;;;;;;;;23.30;91.60;;;;;;5095315;28;20002;-61
2022/07/08 09:05:27;;;;;;;;;;;23.40;91.60;;;;;;5095364;28;19959;-61
2022/07/08 09:07:53;;;;;;;;;;;23.40;91.60;;;;;;5095694;28;19908;-61
2022/07/08 09:10:19;;;;;;;;;;;23.40;91.60;;;;;;5095274;28;19915;-61
2022/07/08 09:13:04;;;;;;;;;;;23.40;91.60;;;;;;5095509;28;19908;-61
2022/07/08 09:15:33;;;;;;;;;;;23.40;91.60;;;;;;5095616;28;19999;-61
2022/07/08 09:17:59;;;;;;;;;;;23.30;91.50;;;;;;5095762;28;19908;-61
2022/07/08 09:20:25;;;;;;;;;;;23.40;91.60;;;;;;5095258;28;19998;-61
2022/07/08 09:22:50;;;;;;;;;;;23.40;91.60;;;;;;5095032;28;19920;-61
2022/07/08 09:25:16;;;;;;;;;;;23.30;91.60;;;;;;5095216;28;20398;-59
2022/07/08 09:27:41;;;;;;;;;;;23.30;91.60;;;;;;5095127;28;19936;-61
2022/07/08 09:30:07;;;;;;;;;;;23.30;91.60;;;;;;5095053;28;20001;-61
2022/07/08 09:32:33;;;;;;;;;;;23.40;91.60;;;;;;5094657;28;20339;-61
2022/07/08 09:34:58;;;;;;;;;;;23.30;91.60;;;;;;5076817;28;19908;-61
2022/07/08 09:37:24;;;;;;;;;;;23.40;91.60;;;;;;5094878;28;19908;-61
2022/07/08 09:39:49;;;;;;;;;;;23.30;91.50;;;;;;5094518;28;19919;-61
2022/07/08 09:42:15;;;;;;;;;;;23.30;91.50;;;;;;5094975;28;20278;-60
2022/07/08 09:44:41;;;;;;;;;;;23.40;91.60;;;;;;5094684;28;20354;-61
2022/07/08 09:47:11;;;;;;;;;;;23.30;91.50;;;;;;5094267;28;20002;-61
2022/07/08 09:49:38;;;;;;;;;;;23.30;91.50;;;;;;5094188;28;19947;-61
2022/07/08 09:52:04;;;;;;;;;;;23.30;91.50;;;;;;5094734;28;19915;-61
2022/07/08 09:54:30;;;;;;;;;;;23.30;91.50;;;;;;5094068;28;19908;-62
2022/07/08 09:57:02;;;;;;;;;;;23.40;91.50;;;;;;5094008;28;19980;-60
2022/07/08 09:59:28;;;;;;;;;;;23.30;91.50;;;;;;5094649;28;19920;-61
2022/07/08 10:01:54;;;;;;;;;;;23.30;91.50;;;;;;5094133;28;19958;-61
2022/07/08 10:04:20;;;;;;;;;;;23.30;91.50;;;;;;5094500;28;19964;-61
2022/07/08 10:06:45;;;;;;;;;;;23.30;91.50;;;;;;5093997;28;19988;-61
2022/07/08 10:09:11;;;;;;;;;;;23.30;91.50;;;;;;5094114;28;19908;-61
2022/07/08 10:11:37;;;;;;;;;;;23.30;91.50;;;;;;5093806;28;19915;-62
2022/07/08 10:14:04;;;;;;;;;;;23.30;91.50;;;;;;5094017;28;19908;-61
2022/07/08 10:16:30;;;;;;;;;;;23.30;91.50;;;;;;5094428;28;20331;-62
2022/07/08 10:18:56;;;;;;;;;;;23.40;91.60;;;;;;5094186;28;19939;-61
2022/07/08 10:21:24;;;;;;;;;;;23.40;91.50;;;;;;5094052;28;19935;-61
2022/07/08 10:23:53;;;;;;;;;;;23.30;91.50;;;;;;5093838;28;19915;-62
2022/07/08 10:26:32;;;;;;;;;;;23.30;91.50;;;;;;5094092;28;20321;-61
2022/07/08 10:29:01;;;;;;;;;;;23.30;91.50;;;;;;5093700;28;19908;-61
2022/07/08 10:31:29;;;;;;;;;;;23.30;91.50;;;;;;5094008;28;20321;-61
2022/07/08 10:34:00;;;;;;;;;;;23.30;91.50;;;;;;5093637;28;19940;-62
2022/07/08 10:36:26;;;;;;;;;;;23.30;91.50;;;;;;5093587;28;19908;-61
2022/07/08 10:38:54;;;;;;;;;;;23.30;91.50;;;;;;5094258;28;20270;-61
2022/07/08 10:41:20;;;;;;;;;;;23.40;91.50;;;;;;5093573;28;20260;-61
2022/07/08 10:43:49;;;;;;;;;;;23.40;91.50;;;;;;5093426;28;20007;-60
2022/07/08 10:46:16;;;;;;;;;;;23.40;91.50;;;;;;5075821;28;19908;-61
2022/07/08 10:48:43;;;;;;;;;;;23.40;91.50;;;;;;5075719;28;19912;-61
2022/07/08 10:51:18;;;;;;;;;;;23.40;91.50;;;;;;5075961;28;19909;-61
2022/07/08 10:53:53;;;;;;;;;;;23.30;91.50;;;;;;5093958;28;19909;-61
2022/07/08 10:56:37;;;;;;;;;;;23.40;91.50;;;;;;5093533;28;19914;-61
2022/07/08 10:59:18;;;;;;;;;;;23.40;91.50;;;;;;5093812;28;19920;-61
2022/07/08 11:01:56;;;;;;;;;;;23.30;91.50;;;;;;5093860;28;19957;-61
2022/07/08 11:04:28;;;;;;;;;;;23.40;91.50;;;;;;5093824;28;19923;-61
2022/07/08 11:06:55;;;;;;;;;;;23.40;91.50;;;;;;5093746;28;19969;-61
2022/07/08 11:09:22;;;;;;;;;;;23.40;91.50;;;;;;5093568;28;19951;-61
2022/07/08 11:11:49;;;;;;;;;;;23.40;91.50;;;;;;5093340;28;20007;-61
2022/07/08 11:14:14;;;;;;;;;;;23.40;91.50;;;;;;5093627;28;19948;-61
2022/07/08 11:16:40;;;;;;;;;;;23.30;91.40;;;;;;5093495;28;19915;-61
2022/07/08 11:19:06;;;;;;;;;;;23.40;91.50;;;;;;5096501;28;20318;-61
2022/07/08 11:21:31;;;;;;;;;;;23.30;91.40;;;;;;5097201;28;19916;-61
2022/07/08 11:23:57;;;;;;;;;;;23.40;91.50;;;;;;5079057;28;19912;-61
2022/07/08 11:26:22;;;;;;;;;;;23.40;91.50;;;;;;5096854;28;20045;-61
2022/07/08 11:28:48;;;;;;;;;;;23.40;91.50;;;;;;5096365;28;20304;-61
2022/07/08 11:31:22;;;;;;;;;;;23.40;91.50;;;;;;5097155;28;19908;-61
2022/07/08 11:33:48;;;;;;;;;;;23.40;91.40;;;;;;5096724;28;19994;-60
2022/07/08 11:36:17;;;;;;;;;;;23.40;91.50;;;;;;5097284;28;19993;-61
2022/07/08 11:38:43;;;;;;;;;;;23.40;91.50;;;;;;5078873;28;19947;-61
2022/07/08 11:41:09;;;;;;;;;;;23.40;91.50;;;;;;5096825;28;20000;-60
2022/07/08 11:43:34;;;;;;;;;;;23.40;91.40;;;;;;5078818;28;20057;-61
2022/07/08 11:46:00;;;;;;;;;;;23.40;91.40;;;;;;5096950;28;19915;-60
2022/07/08 11:48:35;;;;;;;;;;;23.40;91.40;;;;;;5096885;28;19908;-61
2022/07/08 11:51:01;;;;;;;;;;;23.40;91.40;;;;;;5078473;28;19931;-61
2022/07/08 11:53:26;;;;;;;;;;;23.40;91.40;;;;;;5096399;28;20346;-61
2022/07/08 11:55:52;;;;;;;;;;;23.40;91.40;;;;;;5096655;28;19908;-61
2022/07/08 11:58:21;;;;;;;;;;;23.40;91.40;;;;;;5096206;28;20283;-61
2022/07/08 12:00:47;;;;;;;;;;;23.40;91.40;;;;;;5078549;28;19908;-60
2022/07/08 12:03:13;;;;;;;;;;;23.40;91.50;;;;;;5078650;28;20343;-61
2022/07/08 12:05:38;;;;;;;;;;;23.40;91.40;;;;;;5078464;28;19918;-61
2022/07/08 12:08:13;;;;;;;;;;;23.40;91.40;;;;;;5096637;28;20022;-60
2022/07/08 12:10:39;;;;;;;;;;;23.40;91.40;;;;;;5096028;28;19913;-61
2022/07/08 12:13:04;;;;;;;;;;;23.40;91.40;;;;;;5096083;28;19916;-60
2022/07/08 12:15:34;;;;;;;;;;;23.40;91.40;;;;;;5096031;28;19912;-60
2022/07/08 12:17:59;;;;;;;;;;;23.40;91.40;;;;;;5078078;28;20374;-60
2022/07/08 12:20:32;;;;;;;;;;;23.40;91.40;;;;;;5096021;28;19916;-59
2022/07/08 12:22:57;;;;;;;;;;;23.40;91.50;;;;;;5096158;28;20347;-59
2022/07/08 12:25:23;;;;;;;;;;;23.30;91.40;;;;;;5096294;28;19912;-59
2022/07/08 12:27:59;;;;;;;;;;;23.40;91.50;;;;;;5096124;28;19908;-59
2022/07/08 12:30:26;;;;;;;;;;;23.40;91.50;;;;;;5096155;28;20331;-60
2022/07/08 12:32:52;;;;;;;;;;;23.40;91.40;;;;;;5096259;28;19912;-59
2022/07/08 12:35:17;;;;;;;;;;;23.40;91.40;;;;;;5077974;28;19908;-60
2022/07/08 12:37:43;;;;;;;;;;;23.40;91.40;;;;;;5095500;28;19915;-59
2022/07/08 12:40:15;;;;;;;;;;;23.40;91.40;;;;;;5096006;28;19992;-59
2022/07/08 12:42:41;;;;;;;;;;;23.40;91.40;;;;;;5095598;28;19912;-60
2022/07/08 12:45:13;;;;;;;;;;;23.40;91.40;;;;;;5095524;28;19934;-59
2022/07/08 12:47:39;;;;;;;;;;;23.40;91.40;;;;;;5095471;28;20255;-60
2022/07/08 12:50:06;;;;;;;;;;;23.40;91.40;;;;;;5096153;28;19958;-60
2022/07/08 12:52:31;;;;;;;;;;;23.40;91.40;;;;;;5095401;28;19978;-60
2022/07/08 12:54:57;;;;;;;;;;;23.40;91.40;;;;;;5077345;28;20350;-60
2022/07/08 12:57:22;;;;;;;;;;;23.40;91.40;;;;;;5077194;28;19964;-60
2022/07/08 12:59:48;;;;;;;;;;;23.40;91.40;;;;;;5077382;28;19908;-60
2022/07/08 13:02:13;;;;;;;;;;;23.40;91.40;;;;;;5095359;28;19919;-60
2022/07/08 13:04:40;;;;;;;;;;;23.40;91.40;;;;;;5094953;28;19912;-60
2022/07/08 13:07:10;;;;;;;;;;;23.40;91.40;;;;;;5095269;28;19908;-59
2022/07/08 13:09:36;;;;;;;;;;;23.40;91.40;;;;;;5095242;28;20011;-60
2022/07/08 13:12:02;;;;;;;;;;;23.40;91.40;;;;;;5095140;28;20420;-60
2022/07/08 13:14:27;;;;;;;;;;;23.40;91.40;;;;;;5095254;28;20212;-60
2022/07/08 13:16:53;;;;;;;;;;;23.40;91.40;;;;;;5095183;28;19998;-60
2022/07/08 13:19:18;;;;;;;;;;;23.40;91.40;;;;;;5095246;28;19970;-60
2022/07/08 13:21:44;;;;;;;;;;;23.40;91.40;;;;;;5094777;28;19912;-59
2022/07/08 13:24:09;;;;;;;;;;;23.40;91.30;;;;;;5076807;28;19965;-60
2022/07/08 13:26:35;;;;;;;;;;;23.40;91.30;;;;;;5094986;28;19908;-59
2022/07/08 13:29:00;;;;;;;;;;;23.30;91.30;;;;;;5095318;28;19914;-60
2022/07/08 13:31:26;;;;;;;;;;;23.40;91.30;;;;;;5094813;28;19915;-60
2022/07/08 13:33:53;;;;;;;;;;;23.40;91.40;;;;;;5094581;28;19951;-60
2022/07/08 13:36:19;;;;;;;;;;;23.40;91.40;;;;;;5094778;28;19991;-60
2022/07/08 13:38:44;;;;;;;;;;;23.30;91.40;;;;;;5094850;28;19942;-59
2022/07/08 13:41:10;;;;;;;;;;;23.40;91.40;;;;;;5094311;28;19912;-60
2022/07/08 13:43:36;;;;;;;;;;;23.40;91.40;;;;;;5094464;28;19912;-60
2022/07/08 13:46:01;;;;;;;;;;;23.40;91.40;;;;;;5094650;28;20010;-60
2022/07/08 13:48:27;;;;;;;;;;;23.40;91.40;;;;;;5094308;28;20318;-60
2022/07/08 13:50:52;;;;;;;;;;;23.40;91.40;;;;;;5094508;28;19908;-61
2022/07/08 13:53:18;;;;;;;;;;;23.40;91.40;;;;;;5094500;28;20002;-61
2022/07/08 13:55:43;;;;;;;;;;;23.40;91.40;;;;;;5076181;28;19961;-61
2022/07/08 13:58:09;;;;;;;;;;;23.30;91.30;;;;;;5093849;28;20309;-61
2022/07/08 14:00:34;;;;;;;;;;;23.40;91.30;;;;;;5094337;28;20006;-60
2022/07/08 14:03:00;;;;;;;;;;;23.40;91.40;;;;;;5076126;28;20008;-60
2022/07/08 14:05:25;;;;;;;;;;;23.40;91.40;;;;;;5094454;28;19919;-60
2022/07/08 14:07:51;;;;;;;;;;;23.30;91.30;;;;;;5094135;28;20355;-60
2022/07/08 14:10:16;;;;;;;;;;;23.30;91.30;;;;;;5094177;28;19915;-61
2022/07/08 14:12:41;;;;;;;;;;;23.40;91.40;;;;;;5093779;28;20279;-60
2022/07/08 14:15:07;;;;;;;;;;;23.40;91.30;;;;;;5093951;28;19956;-60
2022/07/08 14:17:35;;;;;;;;;;;23.40;91.30;;;;;;5094133;28;19914;-60